Time;durP1;ratioP1;P1;durP2;ratioP2;P2;SDS_P1;SDS_P2;PMS_P1;PMS_P2;Temp;Humidity;BMP_temperature;BMP_pressure;BME280_temperature;BME280_humidity;BME280_pressure;Samples;Min_cycle;Max_cycle;Signal;HPM_P1;HPM_P2
2022/05/05 00:02:18;;;;;;;14.50;7.35;;;;;;;10.17;91.54;101999.22;5075392;28;20043;-54
2022/05/05 00:04:43;;;;;;;17.50;7.32;;;;;;;10.21;91.22;102007.13;5093583;28;20016;-55
2022/05/05 00:07:08;;;;;;;14.20;7.68;;;;;;;10.22;91.21;102009.72;5094602;28;20081;-54
2022/05/05 00:09:34;;;;;;;15.15;7.35;;;;;;;10.21;91.19;102000.03;5093372;28;20028;-53
2022/05/05 00:14:43;;;;;;;14.82;7.32;;;;;;;10.24;91.04;102018.47;5093765;28;20398;-54
2022/05/05 00:17:10;;;;;;;15.05;7.25;;;;;;;10.28;91.15;102009.56;5093527;28;20028;-54
2022/05/05 00:19:38;;;;;;;14.65;7.00;;;;;;;10.35;90.86;102007.63;5093564;28;20107;-54
2022/05/05 00:22:04;;;;;;;13.57;6.88;;;;;;;10.36;90.84;102005.88;5093210;28;20032;-56
2022/05/05 00:24:30;;;;;;;16.33;7.38;;;;;;;10.37;91.47;102002.31;5093143;28;20028;-55
2022/05/05 00:26:56;;;;;;;15.30;7.85;;;;;;;10.38;91.21;101999.63;5093059;28;20119;-57
2022/05/05 00:29:22;;;;;;;15.40;7.93;;;;;;;10.36;91.29;101997.94;5093955;28;20534;-52
2022/05/05 00:31:48;;;;;;;17.95;8.32;;;;;;;10.32;91.18;102000.63;5093166;28;20034;-54
2022/05/05 00:34:14;;;;;;;13.05;7.43;;;;;;;10.28;91.48;101998.97;5093057;28;20103;-55
2022/05/05 00:36:39;;;;;;;17.25;7.68;;;;;;;10.27;91.57;101994.59;5093001;28;20051;-56
2022/05/05 00:39:07;;;;;;;16.75;7.57;;;;;;;10.26;91.24;102007.88;5075147;28;20027;-55
2022/05/05 00:41:36;;;;;;;13.00;7.13;;;;;;;10.21;91.01;102004.47;5092842;28;20084;-55
2022/05/05 00:44:04;;;;;;;14.07;7.53;;;;;;;10.13;91.44;102008.16;5058253;28;20027;-55
2022/05/05 00:46:30;;;;;;;15.73;7.30;;;;;;;10.07;91.81;102002.16;5093045;28;20072;-53
2022/05/05 00:48:56;;;;;;;13.93;7.00;;;;;;;10.00;91.61;102010.22;5092164;28;20037;-57
2022/05/05 00:51:21;;;;;;;19.95;8.38;;;;;;;9.91;92.31;102004.28;5074398;28;20133;-56
2022/05/05 00:53:47;;;;;;;13.98;7.28;;;;;;;9.80;92.22;102000.09;5092636;28;20468;-55
2022/05/05 00:56:14;;;;;;;16.30;7.68;;;;;;;9.74;92.87;102000.25;5075397;28;20036;-56
2022/05/05 00:58:50;;;;;;;17.10;7.50;;;;;;;9.65;93.12;102005.75;5092137;28;20019;-54
2022/05/05 01:01:20;;;;;;;15.82;7.63;;;;;;;9.57;93.85;102003.28;5092318;28;20497;-53
2022/05/05 01:03:47;;;;;;;17.17;7.53;;;;;;;9.56;94.29;102005.97;5073908;28;20088;-57
2022/05/05 01:06:14;;;;;;;12.98;7.40;;;;;;;9.59;94.33;101996.19;5095041;28;20020;-54
2022/05/05 01:08:40;;;;;;;17.85;8.55;;;;;;;9.61;95.41;101998.78;5098853;28;20051;-55
2022/05/05 01:11:05;;;;;;;17.35;8.23;;;;;;;9.59;95.03;102006.75;5091793;28;20395;-56
2022/05/05 01:13:31;;;;;;;17.58;7.80;;;;;;;9.55;95.53;101997.13;5074522;28;20028;-53
2022/05/05 01:15:58;;;;;;;14.75;7.32;;;;;;;9.54;96.01;101991.88;5092517;28;20380;-56
2022/05/05 01:18:24;;;;;;;15.55;7.82;;;;;;;9.54;96.24;101995.41;5093327;28;20032;-55
2022/05/05 01:20:54;;;;;;;13.82;7.50;;;;;;;9.57;96.23;102005.91;5093018;28;20482;-50
2022/05/05 01:23:20;;;;;;;16.63;7.80;;;;;;;9.61;96.34;101997.00;5092312;28;20433;-55
2022/05/05 01:28:31;;;;;;;15.65;7.82;;;;;;;9.66;95.76;101988.97;5093383;28;20506;-55
2022/05/05 01:30:57;;;;;;;18.33;7.97;;;;;;;9.62;95.99;101988.16;5073783;28;20035;-51
2022/05/05 01:33:25;;;;;;;14.50;7.47;;;;;;;9.59;96.94;101988.25;5092254;28;20016;-55
2022/05/05 01:35:52;;;;;;;11.75;7.03;;;;;;;9.59;97.33;101995.28;5092052;28;20028;-51
2022/05/05 01:38:19;;;;;;;18.52;7.80;;;;;;;9.59;97.56;101993.53;5092861;28;20031;-55
2022/05/05 01:40:48;;;;;;;17.77;8.40;;;;;;;9.58;97.75;102001.47;5073760;28;20032;-55
2022/05/05 01:43:15;;;;;;;14.13;7.75;;;;;;;9.56;97.77;101990.94;5070279;28;20024;-54
2022/05/05 01:45:40;;;;;;;15.38;7.30;;;;;;;9.55;98.28;101991.84;5091974;28;20064;-54
2022/05/05 01:48:06;;;;;;;15.40;8.10;;;;;;;9.55;98.46;101996.28;5092676;28;20083;-52
2022/05/05 01:50:32;;;;;;;15.07;7.78;;;;;;;9.57;98.56;101991.84;5092086;28;20028;-53
2022/05/05 01:52:59;;;;;;;13.55;7.72;;;;;;;9.55;98.18;101993.63;5091546;28;20497;-54
2022/05/05 01:55:24;;;;;;;14.88;7.70;;;;;;;9.57;98.05;101990.06;5073482;28;20115;-51
2022/05/05 01:57:50;;;;;;;14.00;7.53;;;;;;;9.57;98.23;101995.34;5091590;28;20111;-54
2022/05/05 02:00:17;;;;;;;16.10;7.75;;;;;;;9.56;98.32;101990.09;5092829;28;20111;-53
2022/05/05 02:02:43;;;;;;;13.50;7.55;;;;;;;9.57;98.23;101999.78;5091488;28;20055;-57
2022/05/05 02:05:09;;;;;;;15.30;7.68;;;;;;;9.54;98.27;101998.06;5091855;28;20031;-53
2022/05/05 02:07:35;;;;;;;16.27;8.02;;;;;;;9.52;98.26;101999.84;5090953;28;20399;-57
2022/05/05 02:10:04;;;;;;;17.65;7.85;;;;;;;9.41;98.47;102005.41;5068875;28;20024;-53
2022/05/05 02:12:30;;;;;;;16.30;7.95;;;;;;;9.34;98.78;102001.97;5095489;28;20483;-54
2022/05/05 02:14:55;;;;;;;16.15;7.72;;;;;;;9.29;98.96;101997.72;5095457;28;20081;-55
2022/05/05 02:17:21;;;;;;;14.70;7.90;;;;;;;9.23;99.51;102009.25;5095696;28;20020;-56
2022/05/05 02:19:47;;;;;;;19.13;8.52;;;;;;;9.15;98.92;102001.50;5061949;28;20111;-57
2022/05/05 02:22:12;;;;;;;17.88;8.30;;;;;;;9.13;99.16;102008.59;5095381;28;20119;-56
2022/05/05 02:24:38;;;;;;;16.52;8.27;;;;;;;9.09;98.99;102012.22;5095459;28;20440;-55
2022/05/05 02:27:04;;;;;;;14.32;7.72;;;;;;;9.02;99.79;102006.16;5095289;28;20028;-54
2022/05/05 02:29:30;;;;;;;17.13;8.25;;;;;;;9.02;99.39;102013.22;5095605;28;20562;-54
2022/05/05 02:31:55;;;;;;;16.65;7.55;;;;;;;9.00;99.30;102009.72;5096702;28;20111;-55
2022/05/05 02:34:21;;;;;;;14.73;8.07;;;;;;;8.96;99.78;102006.25;5095517;28;20026;-55
2022/05/05 02:39:30;;;;;;;16.60;8.20;;;;;;;8.87;99.94;102005.59;5095526;28;20526;-54
2022/05/05 02:41:55;;;;;;;14.23;8.05;;;;;;;8.85;99.86;102006.47;5096286;28;20032;-55
2022/05/05 02:44:20;;;;;;;16.48;8.57;;;;;;;8.83;99.74;102008.28;5095258;28;20062;-56
2022/05/05 02:46:46;;;;;;;16.75;8.63;;;;;;;8.81;99.95;102010.09;5094641;28;20052;-54
2022/05/05 02:49:13;;;;;;;14.95;8.35;;;;;;;8.78;100.00;102010.13;5076947;28;20059;-56
2022/05/05 02:51:40;;;;;;;14.70;8.05;;;;;;;8.75;100.00;102009.34;5065539;28;20075;-57
2022/05/05 02:56:49;;;;;;;14.95;8.18;;;;;;;8.68;100.00;102012.09;5083733;28;20070;-56
2022/05/05 02:59:15;;;;;;;18.25;8.77;;;;;;;8.66;100.00;102013.88;5094689;28;20032;-56
2022/05/05 03:01:41;;;;;;;17.48;8.68;;;;;;;8.63;100.00;102013.06;5096086;28;20028;-56
2022/05/05 03:04:07;;;;;;;16.90;8.40;;;;;;;8.61;100.00;102006.94;5076578;28;20031;-56
2022/05/05 03:06:32;;;;;;;14.63;8.45;;;;;;;8.60;100.00;102011.34;5094333;28;20105;-54
2022/05/05 03:08:57;;;;;;;19.05;9.52;;;;;;;8.57;100.00;102015.78;5076288;28;20066;-54
2022/05/05 03:11:23;;;;;;;15.98;8.65;;;;;;;8.55;100.00;102009.69;5094763;28;20058;-55
2022/05/05 03:13:48;;;;;;;18.25;9.82;;;;;;;8.52;100.00;102006.19;5077678;28;20396;-56
2022/05/05 03:16:14;;;;;;;15.63;8.43;;;;;;;8.52;100.00;102006.19;5094617;28;20020;-55
2022/05/05 03:18:40;;;;;;;16.95;8.85;;;;;;;8.52;100.00;102016.75;5094152;28;20036;-57
2022/05/05 03:21:06;;;;;;;17.52;8.77;;;;;;;8.51;100.00;102011.50;5093990;28;20028;-57
2022/05/05 03:23:31;;;;;;;15.00;8.88;;;;;;;8.49;100.00;102003.63;5095426;28;20117;-55
2022/05/05 03:25:57;;;;;;;16.40;8.75;;;;;;;8.49;100.00;102018.56;5059610;28;20119;-56
2022/05/05 03:28:22;;;;;;;14.57;9.07;;;;;;;8.47;100.00;102010.69;5058981;28;20032;-57
2022/05/05 03:30:49;;;;;;;16.25;8.80;;;;;;;8.51;100.00;102014.16;5076458;28;20036;-56
2022/05/05 03:33:14;;;;;;;17.88;9.77;;;;;;;8.56;100.00;102011.44;5095446;28;20032;-55
2022/05/05 03:35:40;;;;;;;16.25;8.70;;;;;;;8.61;100.00;102014.88;5076397;28;20078;-55
2022/05/05 03:38:05;;;;;;;15.32;9.05;;;;;;;8.63;100.00;102008.66;5058458;28;20020;-54
2022/05/05 03:40:30;;;;;;;17.33;8.93;;;;;;;8.64;100.00;102012.16;5076097;28;20093;-55
2022/05/05 03:42:56;;;;;;;17.35;8.88;;;;;;;8.65;100.00;102008.63;5094239;28;20032;-56
2022/05/05 03:45:21;;;;;;;17.63;9.90;;;;;;;8.66;100.00;102016.50;5076954;28;20032;-56
2022/05/05 03:47:46;;;;;;;17.73;8.90;;;;;;;8.68;100.00;102006.81;5093791;28;20087;-56
2022/05/05 03:50:12;;;;;;;18.13;9.02;;;;;;;8.70;100.00;102009.41;5075323;28;20040;-54
2022/05/05 03:52:37;;;;;;;16.90;8.82;;;;;;;8.75;100.00;102011.97;5094091;28;20032;-56
2022/05/05 03:55:03;;;;;;;16.63;9.23;;;;;;;8.76;100.00;102016.34;5095030;28;20028;-55
2022/05/05 03:57:28;;;;;;;16.55;9.10;;;;;;;8.78;100.00;102009.28;5093905;28;20024;-54
2022/05/05 03:59:54;;;;;;;18.08;9.38;;;;;;;8.81;100.00;102019.75;5058513;28;20036;-57
2022/05/05 04:02:19;;;;;;;17.30;9.25;;;;;;;8.83;100.00;102020.63;5092239;28;20028;-56
2022/05/05 04:04:44;;;;;;;15.65;8.57;;;;;;;8.87;100.00;102024.94;5094529;28;20102;-56
2022/05/05 04:07:10;;;;;;;16.30;9.13;;;;;;;8.93;100.00;102021.34;5075271;28;20035;-53
2022/05/05 04:09:35;;;;;;;17.25;9.52;;;;;;;8.96;100.00;102019.47;5092828;28;20114;-54
2022/05/05 04:12:00;;;;;;;17.45;8.93;;;;;;;9.01;100.00;102022.94;5075364;28;20123;-52
2022/05/05 04:14:26;;;;;;;17.27;8.60;;;;;;;9.05;100.00;102020.22;5093403;28;20051;-52
2022/05/05 04:16:51;;;;;;;17.80;9.10;;;;;;;9.09;100.00;102028.06;5094128;28;20056;-56
2022/05/05 04:19:16;;;;;;;14.20;8.52;;;;;;;9.11;100.00;102025.38;5072321;28;20123;-55
2022/05/05 04:21:42;;;;;;;15.95;8.90;;;;;;;9.16;100.00;102026.16;5045398;28;20055;-55
2022/05/05 04:24:07;;;;;;;16.10;9.00;;;;;;;9.22;100.00;102022.50;5093307;28;20028;-52
2022/05/05 04:26:33;;;;;;;16.52;8.90;;;;;;;9.27;100.00;102026.81;5076057;28;20125;-55
2022/05/05 04:28:59;;;;;;;18.08;9.10;;;;;;;9.32;100.00;102026.72;5058198;28;20471;-57
2022/05/05 04:31:28;;;;;;;14.50;8.35;;;;;;;9.35;100.00;102035.44;5092897;28;20042;-55
2022/05/05 04:33:53;;;;;;;17.05;9.30;;;;;;;9.39;100.00;102040.69;5091993;28;20475;-53
2022/05/05 04:36:19;;;;;;;19.88;9.50;;;;;;;9.43;100.00;102031.78;5093958;28;20085;-55
2022/05/05 04:38:44;;;;;;;18.48;9.70;;;;;;;9.45;100.00;102033.50;5092773;28;20483;-53
2022/05/05 04:41:09;;;;;;;16.95;8.77;;;;;;;9.50;100.00;102031.63;5092847;28;20032;-54
2022/05/05 04:43:35;;;;;;;17.63;9.60;;;;;;;9.52;100.00;102037.72;5092990;28;20066;-53
2022/05/05 04:46:01;;;;;;;16.52;9.05;;;;;;;9.59;100.00;102029.69;5092698;28;20028;-53
2022/05/05 04:48:26;;;;;;;15.75;8.32;;;;;;;9.66;100.00;102031.28;5075531;28;20127;-51
2022/05/05 04:50:51;;;;;;;17.77;8.63;;;;;;;9.75;100.00;102040.81;5074321;28;20023;-53
2022/05/05 04:53:17;;;;;;;13.10;8.45;;;;;;;9.80;100.00;102033.63;5092521;28;20036;-57
2022/05/05 04:55:42;;;;;;;15.35;8.85;;;;;;;9.83;100.00;102037.09;5092794;28;20081;-56
2022/05/05 04:58:07;;;;;;;16.65;8.93;;;;;;;9.86;100.00;102049.38;5093922;28;20039;-55
2022/05/05 05:00:33;;;;;;;17.23;8.70;;;;;;;9.90;100.00;102048.41;5072857;28;20150;-51
2022/05/05 05:02:59;;;;;;;17.13;8.82;;;;;;;9.95;100.00;102045.66;5092213;28;20043;-55
2022/05/05 05:05:24;;;;;;;17.42;8.60;;;;;;;9.98;100.00;102058.81;5092176;28;20039;-54
2022/05/05 05:07:50;;;;;;;13.88;8.50;;;;;;;10.00;100.00;102062.31;5092747;28;20102;-53
2022/05/05 05:10:15;;;;;;;15.02;8.77;;;;;;;10.02;100.00;102060.47;5091415;28;20060;-53
2022/05/05 05:12:40;;;;;;;17.73;9.10;;;;;;;10.08;100.00;102059.47;5092319;28;20115;-56
2022/05/05 05:15:07;;;;;;;19.77;9.70;;;;;;;10.12;100.00;102058.50;5075254;28;20479;-54
2022/05/05 05:17:33;;;;;;;19.73;10.15;;;;;;;10.15;100.00;102063.69;5092059;28;20044;-51
2022/05/05 05:19:59;;;;;;;19.77;9.65;;;;;;;10.21;100.00;102063.56;5074032;28;20388;-52
2022/05/05 05:22:24;;;;;;;17.85;10.13;;;;;;;10.27;100.00;102057.28;5091523;28;20028;-55
2022/05/05 05:24:50;;;;;;;19.02;9.88;;;;;;;10.39;100.00;102066.72;5091854;28;20032;-57
2022/05/05 05:27:15;;;;;;;18.75;9.32;;;;;;;10.48;100.00;102077.94;5091979;28;20039;-55
2022/05/05 05:29:41;;;;;;;18.95;9.98;;;;;;;10.56;99.05;102082.19;5074036;28;20024;-54
2022/05/05 05:32:06;;;;;;;16.65;9.60;;;;;;;10.61;98.91;102078.53;5091699;28;21790;-55
2022/05/05 05:34:32;;;;;;;14.65;9.07;;;;;;;10.64;98.73;102094.34;5091666;28;20085;-57
2022/05/05 05:36:57;;;;;;;14.15;8.98;;;;;;;10.70;99.22;102089.78;5091335;28;20476;-54
2022/05/05 05:39:23;;;;;;;17.52;9.27;;;;;;;10.72;99.14;102086.19;5107097;28;20552;-56
2022/05/05 05:41:48;;;;;;;17.10;9.38;;;;;;;10.73;99.52;102095.88;5091995;28;20429;-52
2022/05/05 05:44:13;;;;;;;18.73;10.88;;;;;;;10.77;99.91;102080.78;5076454;28;20114;-54
2022/05/05 05:46:39;;;;;;;18.25;10.27;;;;;;;10.90;99.39;102091.94;5091745;28;20491;-56
2022/05/05 05:49:09;;;;;;;19.98;9.73;;;;;;;10.97;98.56;102097.03;5072973;28;20032;-55
2022/05/05 05:51:35;;;;;;;16.15;9.98;;;;;;;11.02;98.73;102103.97;5069712;28;20032;-54
2022/05/05 05:54:00;;;;;;;19.58;9.68;;;;;;;11.08;98.72;102098.53;5090640;28;20039;-54
2022/05/05 05:56:26;;;;;;;18.55;9.70;;;;;;;11.11;99.28;102106.38;5093424;28;20115;-53
2022/05/05 05:58:51;;;;;;;18.63;10.07;;;;;;;11.16;99.46;102104.47;5111060;28;20027;-56
2022/05/05 06:01:16;;;;;;;23.23;11.23;;;;;;;11.23;99.43;102102.56;5106091;28;20019;-57
2022/05/05 06:03:54;;;;;;;19.60;10.82;;;;;;;11.28;99.50;102109.47;5091339;28;20035;-54
2022/05/05 06:06:21;;;;;;;20.70;11.00;;;;;;;11.32;99.51;102113.75;5091592;28;20411;-56
2022/05/05 06:08:46;;;;;;;21.45;11.88;;;;;;;11.39;99.08;102118.91;5091480;28;20051;-54
2022/05/05 06:11:13;;;;;;;18.52;11.27;;;;;;;11.45;98.66;102122.25;5056669;28;20479;-53
2022/05/05 06:13:39;;;;;;;21.30;11.23;;;;;;;11.52;97.95;102114.13;5073676;28;20020;-55
2022/05/05 06:16:06;;;;;;;21.95;10.82;;;;;;;11.59;97.81;102123.66;5073195;28;20024;-57
2022/05/05 06:18:31;;;;;;;19.95;11.27;;;;;;;11.67;98.09;102118.13;5091441;28;20047;-56
2022/05/05 06:20:57;;;;;;;22.48;12.25;;;;;;;11.77;97.44;102124.91;5091992;28;20028;-57
2022/05/05 06:23:22;;;;;;;22.38;12.50;;;;;;;11.84;96.05;102123.81;5111838;28;20088;-53
2022/05/05 06:25:47;;;;;;;20.35;12.13;;;;;;;11.92;95.56;102131.56;5092645;28;20044;-53
2022/05/05 06:28:13;;;;;;;22.35;11.98;;;;;;;12.01;95.50;102128.66;5073192;28;20027;-56
2022/05/05 06:30:39;;;;;;;26.70;12.48;;;;;;;12.06;95.56;102125.81;5093051;28;20454;-51
2022/05/05 06:33:04;;;;;;;27.63;14.05;;;;;;;12.08;95.28;102126.66;5084623;28;20107;-56
2022/05/05 06:35:29;;;;;;;26.52;15.57;;;;;;;12.20;93.88;102130.72;5084549;28;20517;-52
2022/05/05 06:37:55;;;;;;;29.27;14.65;;;;;;;12.31;92.83;102138.38;5072697;28;20100;-53
2022/05/05 06:40:20;;;;;;;27.80;15.77;;;;;;;12.41;92.12;102135.38;5067713;28;20031;-54
2022/05/05 06:42:48;;;;;;;34.00;16.42;;;;;;;12.52;91.24;102144.78;5095519;28;20035;-55
2022/05/05 06:45:13;;;;;;;29.02;15.80;;;;;;;12.57;90.12;102146.38;5088466;28;20086;-55
2022/05/05 06:47:40;;;;;;;33.75;16.05;;;;;;;12.64;90.45;102136.41;5090848;28;20048;-55
2022/05/05 06:50:06;;;;;;;32.67;16.52;;;;;;;12.70;89.81;102136.22;5091729;28;20483;-55
2022/05/05 06:52:31;;;;;;;30.17;16.00;;;;;;;12.77;89.75;102144.84;5090879;28;20702;-54
2022/05/05 06:54:56;;;;;;;31.92;15.68;;;;;;;12.81;88.79;102143.81;5091162;28;20054;-55
2022/05/05 06:57:23;;;;;;;31.33;16.48;;;;;;;12.87;88.99;102142.75;5092170;28;20032;-55
2022/05/05 06:59:48;;;;;;;40.33;18.45;;;;;;;12.92;88.49;102147.00;5077280;28;20036;-54
2022/05/05 07:02:14;;;;;;;30.50;16.55;;;;;;;13.05;88.19;102147.44;5094284;28;20032;-57
2022/05/05 07:07:23;;;;;;;35.10;17.85;;;;;;;13.20;88.10;102154.03;5094217;28;20090;-54
2022/05/05 07:12:33;;;;;;;33.63;17.35;;;;;;;13.39;87.36;102158.75;5089521;28;20131;-57
2022/05/05 07:14:58;;;;;;;32.10;17.63;;;;;;;13.52;88.35;102153.84;5092702;28;20487;-56
2022/05/05 07:17:24;;;;;;;35.08;18.60;;;;;;;13.61;86.61;102158.84;5093835;28;20036;-56
2022/05/05 07:19:50;;;;;;;37.67;20.30;;;;;;;13.62;86.08;102157.91;5094152;28;20387;-56
2022/05/05 07:22:16;;;;;;;37.72;19.17;;;;;;;13.67;86.15;102160.38;5095021;28;20023;-56
2022/05/05 07:24:41;;;;;;;34.33;19.70;;;;;;;13.73;86.21;102153.06;5094423;28;20028;-57
2022/05/05 07:27:07;;;;;;;45.00;21.67;;;;;;;13.85;85.45;102153.50;5076713;28;20030;-58
2022/05/05 07:29:33;;;;;;;40.92;22.17;;;;;;;13.88;85.07;102156.06;5093030;28;20043;-56
2022/05/05 07:31:59;;;;;;;32.55;18.77;;;;;;;13.98;85.60;102160.13;5075769;28;20074;-56
2022/05/05 07:34:25;;;;;;;39.28;21.40;;;;;;;14.12;84.10;102164.03;5075741;28;20055;-57
2022/05/05 07:36:51;;;;;;;41.00;22.27;;;;;;;14.16;83.42;102165.69;5099331;28;20028;-58
2022/05/05 07:39:16;;;;;;;45.53;23.70;;;;;;;14.20;81.82;102165.47;5093718;28;20020;-56
2022/05/05 07:41:42;;;;;;;43.78;24.08;;;;;;;14.17;81.58;102170.06;5093813;28;20024;-57
2022/05/05 07:44:08;;;;;;;44.40;24.17;;;;;;;14.08;82.40;102168.63;5093536;28;20028;-54
2022/05/05 07:46:35;;;;;;;42.50;24.75;;;;;;;14.13;81.53;102169.34;5094095;28;20035;-56
2022/05/05 07:49:01;;;;;;;45.17;25.40;;;;;;;14.24;81.61;102168.91;5093379;28;20518;-54
2022/05/05 07:51:28;;;;;;;45.03;24.27;;;;;;;14.45;80.83;102176.97;5093105;28;20073;-55
2022/05/05 07:56:38;;;;;;;48.20;25.40;;;;;;;14.54;80.10;102182.81;5093800;28;20038;-55
2022/05/05 07:59:03;;;;;;;45.13;24.30;;;;;;;14.69;78.89;102180.47;5074069;28;20453;-58
2022/05/05 08:01:29;;;;;;;45.25;24.73;;;;;;;14.84;78.72;102173.66;5081334;28;20036;-57
2022/05/05 08:03:55;;;;;;;44.63;24.67;;;;;;;14.87;78.64;102176.19;5105930;28;20031;-56
2022/05/05 08:06:21;;;;;;;47.03;24.55;;;;;;;14.97;78.78;102179.34;5095130;28;20043;-53
2022/05/05 08:08:46;;;;;;;41.88;22.98;;;;;;;15.11;77.91;102189.44;5095481;28;20371;-56
2022/05/05 08:11:12;;;;;;;45.45;25.17;;;;;;;15.26;76.90;102186.13;5095851;28;20019;-55
2022/05/05 08:13:37;;;;;;;44.50;25.73;;;;;;;15.37;77.21;102194.53;5067430;28;20483;-57
2022/05/05 08:16:02;;;;;;;50.30;26.55;;;;;;;15.55;76.24;102184.84;5095298;28;20051;-56
2022/05/05 08:18:28;;;;;;;48.53;25.60;;;;;;;15.72;75.12;102196.56;5107189;28;20039;-53
2022/05/05 08:20:53;;;;;;;44.97;24.75;;;;;;;15.81;74.58;102193.50;5091493;28;20020;-56
2022/05/05 08:23:19;;;;;;;47.05;26.15;;;;;;;15.95;73.99;102200.03;5093428;28;20024;-57
2022/05/05 08:28:29;;;;;;;50.88;25.15;;;;;;;16.09;73.69;102194.03;5092743;28;20115;-57
2022/05/05 08:30:58;;;;;;;45.67;25.83;;;;;;;16.24;72.46;102204.03;5080761;28;20115;-54
2022/05/05 08:33:27;;;;;;;48.67;26.90;;;;;;;16.34;72.36;102204.44;5092623;28;20031;-56
2022/05/05 08:35:54;;;;;;;43.70;25.52;;;;;;;16.38;71.64;102206.91;5092828;28;20028;-57
2022/05/05 08:38:19;;;;;;;47.47;27.23;;;;;;;16.35;72.14;102208.84;5092913;28;20106;-57
2022/05/05 08:40:44;;;;;;;43.38;25.55;;;;;;;16.61;71.96;102202.28;5074722;28;20107;-57
2022/05/05 08:43:10;;;;;;;46.63;26.77;;;;;;;16.84;72.36;102206.50;5090679;28;20148;-58
2022/05/05 08:45:37;;;;;;;44.28;26.35;;;;;;;17.06;69.72;102204.56;5077024;28;20544;-56
2022/05/05 08:48:07;;;;;;;45.72;26.10;;;;;;;17.02;73.25;102206.53;5092589;28;20581;-57
2022/05/05 08:50:35;;;;;;;43.28;26.60;;;;;;;17.14;71.41;102216.63;5091299;28;20035;-56
2022/05/05 08:53:02;;;;;;;47.38;26.52;;;;;;;17.10;69.75;102219.53;5090838;28;20054;-57
2022/05/05 08:55:29;;;;;;;46.75;26.52;;;;;;;17.13;69.91;102217.56;5092080;28;20031;-55
2022/05/05 08:57:55;;;;;;;42.85;25.67;;;;;;;17.07;69.62;102211.66;5073295;28;20039;-57
2022/05/05 09:00:20;;;;;;;43.92;26.50;;;;;;;17.02;70.58;102225.25;5092211;28;20023;-57
2022/05/05 09:02:54;;;;;;;44.30;26.42;;;;;;;17.04;70.29;102228.72;5092077;28;20095;-57
2022/05/05 09:05:52;;;;;;;47.50;27.15;;;;;;;17.22;71.49;102231.44;5093497;28;20039;-57
2022/05/05 09:08:24;;;;;;;45.78;26.52;;;;;;;17.52;70.52;102229.00;5044074;28;20039;-55
2022/05/05 09:10:51;;;;;;;47.45;26.58;;;;;;;17.66;69.32;102236.28;5092329;28;20499;-56
2022/05/05 09:13:28;;;;;;;41.17;25.95;;;;;;;17.57;67.91;102226.94;5090858;28;20107;-57
2022/05/05 09:15:53;;;;;;;47.38;26.73;;;;;;;17.42;68.40;102233.09;5091798;28;20031;-58
2022/05/05 09:18:22;;;;;;;40.42;25.45;;;;;;;17.32;69.03;102233.56;5092308;28;20027;-57
2022/05/05 09:20:49;;;;;;;43.42;27.58;;;;;;;17.42;69.08;102233.09;5090522;28;20020;-55
2022/05/05 09:23:31;;;;;;;55.17;29.05;;;;;;;17.24;71.12;102232.19;5089504;28;20035;-54
2022/05/05 09:25:59;;;;;;;47.83;29.17;;;;;;;17.49;72.15;102242.53;5073276;28;20479;-55
2022/05/05 09:28:31;;;;;;;41.40;25.13;;;;;;;17.66;69.43;102238.97;5091286;28;20028;-57
2022/05/05 09:31:03;;;;;;;42.65;26.23;;;;;;;17.73;68.48;102250.25;5088379;28;20024;-57
2022/05/05 09:33:35;;;;;;;42.58;26.33;;;;;;;17.85;68.01;102237.06;5072390;28;20054;-57
2022/05/05 09:36:05;;;;;;;43.50;25.20;;;;;;;18.01;67.80;102241.63;5101546;28;20467;-59
2022/05/05 09:39:00;;;;;;;43.97;27.00;;;;;;;18.35;67.40;102239.78;5112016;28;20051;-56
2022/05/05 09:41:33;;;;;;;45.22;27.75;;;;;;;18.20;66.56;102240.59;5111983;28;20020;-55
2022/05/05 09:44:12;;;;;;;41.75;26.98;;;;;;;18.21;67.63;102245.91;5102238;28;20020;-55
2022/05/05 09:46:38;;;;;;;39.90;26.83;;;;;;;18.44;68.09;102249.09;5088087;28;20047;-54
2022/05/05 09:49:04;;;;;;;49.05;27.52;;;;;;;18.55;66.11;102241.34;5090031;28;20075;-56
2022/05/05 09:51:29;;;;;;;40.58;25.42;;;;;;;18.84;64.26;102249.56;5071014;28;20475;-56
2022/05/05 09:59:40;;;;;;;36.55;24.90;;;;;;;19.18;63.13;102244.91;5085937;28;20403;-50
2022/05/05 10:04:00;;;;;;;33.53;22.00;;;;;;;19.24;59.92;102252.63;5086549;28;20479;-55
2022/05/05 10:05:06;;;;;;;35.83;20.80;;;;;;;19.40;59.35;102259.75;5085644;28;20075;-53
2022/05/05 10:07:34;;;;;;;26.55;18.23;;;;;;;19.52;58.96;102256.34;5087268;28;20161;-55
2022/05/05 10:10:00;;;;;;;36.55;23.05;;;;;;;19.61;59.67;102261.16;5090210;28;20063;-54
2022/05/05 10:12:27;;;;;;;34.75;20.80;;;;;;;19.60;57.80;102262.13;5090892;28;20031;-51
2022/05/05 10:14:53;;;;;;;35.25;23.75;;;;;;;19.64;59.04;102255.59;5092126;28;20035;-56
2022/05/05 10:17:18;;;;;;;35.40;24.13;;;;;;;19.74;59.78;102257.72;5061737;28;20038;-54
2022/05/05 10:19:44;;;;;;;37.40;25.02;;;;;;;19.76;59.18;102259.38;5090610;28;20032;-56
2022/05/05 10:22:15;;;;;;;32.53;21.23;;;;;;;19.70;60.36;102262.41;5090401;28;20032;-55
2022/05/05 10:24:52;;;;;;;29.52;18.42;;;;;;;19.90;55.43;102268.44;5091743;28;20011;-56
2022/05/05 10:27:17;;;;;;;29.25;19.27;;;;;;;19.79;55.67;102261.00;5074399;28;20059;-56
2022/05/05 10:29:44;;;;;;;30.13;21.48;;;;;;;19.85;55.52;102262.47;5092062;28;20071;-55
2022/05/05 10:32:18;;;;;;;43.92;26.00;;;;;;;19.89;57.73;102264.88;5075709;28;20059;-55
2022/05/05 10:34:51;;;;;;;40.95;26.30;;;;;;;20.20;57.67;102254.88;5076648;28;20058;-55
2022/05/05 10:37:31;;;;;;;38.95;25.35;;;;;;;20.24;57.05;102263.63;5099772;28;20028;-56
2022/05/05 10:39:59;;;;;;;34.58;24.73;;;;;;;20.07;55.63;102267.38;5093647;28;20103;-57
2022/05/05 10:42:31;;;;;;;34.95;24.25;;;;;;;20.25;57.36;102263.53;5094343;28;20036;-56
2022/05/05 10:45:21;;;;;;;36.00;23.83;;;;;;;20.34;56.64;102267.47;5091293;28;20107;-57
2022/05/05 10:47:55;;;;;;;41.67;26.17;;;;;;;20.27;59.06;102272.38;5093436;28;20056;-56
2022/05/05 10:50:27;;;;;;;29.88;19.20;;;;;;;20.45;54.27;102275.72;5092485;28;20122;-57
2022/05/05 10:52:52;;;;;;;;;;;;;;;20.25;53.99;102268.06;5094277;28;20054;-56
2022/05/05 10:55:40;;;;;;;20.50;14.23;;;;;;;20.28;52.64;102270.53;5076392;28;20363;-58
2022/05/05 10:58:09;;;;;;;24.45;17.80;;;;;;;20.16;53.17;102265.94;5095602;28;20027;-56
2022/05/05 11:00:44;;;;;;;26.25;17.92;;;;;;;20.05;53.85;102272.00;5075867;28;20395;-57
2022/05/05 11:03:10;;;;;;;21.65;16.05;;;;;;;20.36;50.50;102272.75;5094186;28;20043;-57
2022/05/05 11:05:39;;;;;;;19.55;13.65;;;;;;;20.42;49.08;102267.84;5094384;28;20020;-55
2022/05/05 11:08:07;;;;;;;24.42;16.67;;;;;;;20.63;50.88;102283.56;5093638;28;20085;-57
2022/05/05 11:10:42;;;;;;;27.95;19.77;;;;;;;20.70;51.59;102284.03;5095436;28;20075;-57
2022/05/05 11:13:36;;;;;;;31.05;21.45;;;;;;;20.52;53.09;102278.88;5093805;28;20028;-57
2022/05/05 11:22:24;;;;;;;26.27;19.17;;;;;;;21.03;49.93;102274.75;5093824;28;20545;-57
2022/05/05 11:24:52;;;;;;;27.58;18.10;;;;;;;21.34;50.58;102278.91;5087632;28;20095;-55
2022/05/05 11:27:23;;;;;;;25.05;17.80;;;;;;;21.70;49.56;102269.31;5089923;28;20032;-55
2022/05/05 11:29:50;;;;;;;24.77;17.65;;;;;;;22.42;48.15;102265.19;5093968;28;20039;-57
2022/05/05 11:32:16;;;;;;;25.50;18.83;;;;;;;22.32;48.88;102264.94;5094054;28;20024;-57
2022/05/05 11:34:41;;;;;;;24.83;17.52;;;;;;;22.42;49.25;102274.13;5093723;28;20391;-57
2022/05/05 11:37:08;;;;;;;27.08;19.45;;;;;;;22.21;48.40;102273.84;5094430;28;20016;-57
2022/05/05 11:39:35;;;;;;;24.90;18.85;;;;;;;21.88;48.24;102269.84;5093540;28;20020;-58
2022/05/05 11:42:08;;;;;;;23.23;17.30;;;;;;;21.56;49.44;102275.66;5075297;28;20031;-58
2022/05/05 11:44:37;;;;;;;23.33;16.77;;;;;;;21.43;51.62;102278.31;5092659;28;20038;-57
2022/05/05 11:47:17;;;;;;;25.25;17.75;;;;;;;21.22;51.43;102285.16;5075337;28;20066;-57
2022/05/05 11:49:46;;;;;;;25.67;18.15;;;;;;;21.30;50.66;102277.41;5094841;28;20078;-56